createdAt,value
2023-02-02T00:01:15.910Z,65.10
2023-02-02T00:03:44.186Z,58.30
2023-02-02T00:06:11.881Z,53.90
2023-02-02T00:08:39.348Z,58.30
2023-02-02T00:11:06.724Z,64.60
2023-02-02T00:13:33.769Z,57.80
2023-02-02T00:16:22.031Z,59.60
2023-02-02T00:18:50.679Z,59.90
2023-02-02T00:21:17.618Z,59.90
2023-02-02T00:23:44.695Z,49.00
2023-02-02T00:26:11.945Z,48.50
2023-02-02T00:28:38.931Z,45.10
2023-02-02T00:31:05.836Z,46.80
2023-02-02T00:33:32.860Z,53.70
2023-02-02T00:36:01.210Z,50.70
2023-02-02T00:38:28.235Z,48.20
2023-02-02T00:40:55.487Z,49.60
2023-02-02T00:43:22.392Z,49.70
2023-02-02T00:45:50.162Z,55.70
2023-02-02T00:48:17.060Z,45.70
2023-02-02T00:50:44.428Z,37.90
2023-02-02T00:53:14.379Z,45.80
2023-02-02T00:55:41.708Z,40.30
2023-02-02T00:58:08.668Z,40.90
2023-02-02T01:00:36.259Z,38.40
2023-02-02T01:03:07.588Z,35.80
2023-02-02T01:05:35.288Z,33.10
2023-02-02T01:08:02.433Z,32.80
2023-02-02T01:10:31.424Z,26.60
2023-02-02T01:12:58.320Z,27.10
2023-02-02T01:15:31.789Z,18.80
2023-02-02T01:17:58.766Z,17.30
2023-02-02T01:20:26.282Z,21.60
2023-02-02T01:22:53.206Z,19.70
2023-02-02T01:25:20.567Z,20.70
2023-02-02T01:27:49.345Z,22.00
2023-02-02T01:30:16.851Z,21.50
2023-02-02T01:32:43.768Z,30.00
2023-02-02T01:35:11.230Z,21.70
2023-02-02T01:37:40.200Z,27.50
2023-02-02T01:40:08.734Z,27.50
2023-02-02T01:42:35.694Z,25.90
2023-02-02T01:45:21.302Z,34.30
2023-02-02T01:47:51.800Z,37.40
2023-02-02T01:50:21.900Z,45.80
2023-02-02T01:52:51.706Z,46.40
2023-02-02T01:55:22.594Z,49.80
2023-02-02T01:57:52.750Z,47.30
2023-02-02T02:00:25.730Z,47.30
2023-02-02T02:02:54.982Z,44.90
2023-02-02T02:05:27.955Z,51.10
2023-02-02T02:08:01.908Z,45.10
2023-02-02T02:10:29.283Z,50.00
2023-02-02T02:12:56.191Z,36.20
2023-02-02T02:15:43.834Z,40.80
2023-02-02T02:18:23.963Z,40.50
2023-02-02T02:21:49.762Z,32.50
2023-02-02T02:25:17.450Z,27.30
2023-02-02T02:28:12.495Z,30.90
2023-02-02T02:31:13.436Z,28.40
2023-02-02T02:33:49.087Z,19.20
2023-02-02T02:36:20.656Z,15.20
2023-02-02T02:38:56.544Z,18.30
2023-02-02T02:41:28.141Z,20.50
2023-02-02T02:43:59.250Z,26.10
2023-02-02T02:46:28.287Z,32.50
2023-02-02T02:48:59.588Z,31.80
2023-02-02T02:51:51.933Z,32.60
2023-02-02T02:54:22.383Z,27.90
2023-02-02T02:57:09.511Z,31.80
2023-02-02T02:59:43.212Z,26.50
2023-02-02T03:02:24.648Z,30.90
2023-02-02T03:05:02.871Z,37.60
2023-02-02T03:07:35.992Z,40.10
2023-02-02T03:10:05.875Z,49.80
2023-02-02T03:12:33.175Z,47.30
2023-02-02T03:15:04.292Z,49.70
2023-02-02T03:17:32.863Z,53.30
2023-02-02T03:20:01.182Z,58.40
2023-02-02T03:22:28.446Z,57.10
2023-02-02T03:24:56.888Z,60.20
2023-02-02T03:27:24.143Z,56.40
2023-02-02T03:29:51.088Z,57.70
2023-02-02T03:32:18.702Z,67.40
2023-02-02T03:34:45.601Z,65.90
2023-02-02T03:37:14.277Z,67.10
2023-02-02T03:39:41.194Z,72.00
2023-02-02T03:42:08.504Z,72.10
2023-02-02T03:44:35.663Z,74.40
2023-02-02T03:47:02.820Z,78.30
2023-02-02T03:49:29.709Z,77.40
2023-02-02T03:51:56.902Z,66.00
2023-02-02T03:54:25.183Z,53.60
2023-02-02T03:56:52.111Z,57.10
2023-02-02T03:59:19.059Z,60.30
2023-02-02T04:01:45.978Z,55.00
2023-02-02T04:04:13.022Z,59.30
2023-02-02T04:06:39.949Z,68.80
2023-02-02T04:09:07.078Z,60.20
2023-02-02T04:11:36.412Z,62.70
2023-02-02T04:14:03.361Z,68.40
2023-02-02T04:16:35.114Z,69.00
2023-02-02T04:19:02.069Z,68.60
2023-02-02T04:21:29.339Z,73.20
2023-02-02T04:23:56.391Z,82.40
2023-02-02T04:26:25.917Z,89.80
2023-02-02T04:28:54.418Z,89.80
2023-02-02T04:31:21.379Z,92.90
2023-02-02T04:33:48.541Z,99.90
2023-02-02T04:36:15.903Z,99.90
2023-02-02T04:38:43.179Z,99.90
2023-02-02T04:41:11.975Z,99.90
2023-02-02T04:43:39.387Z,99.90
2023-02-02T04:46:07.752Z,99.90
2023-02-02T04:48:35.093Z,99.90
2023-02-02T04:51:03.299Z,99.90
2023-02-02T04:53:30.279Z,99.90
2023-02-02T04:55:57.310Z,99.90
2023-02-02T04:58:24.753Z,99.90
2023-02-02T05:00:51.634Z,99.90
2023-02-02T05:03:20.034Z,99.90
2023-02-02T05:05:47.021Z,99.90
2023-02-02T05:08:14.184Z,99.90
2023-02-02T05:10:41.935Z,99.90
2023-02-02T05:13:09.735Z,99.90
2023-02-02T05:15:36.628Z,99.90
2023-02-02T05:18:04.068Z,99.90
2023-02-02T05:20:32.311Z,99.90
2023-02-02T05:22:59.529Z,99.90
2023-02-02T05:25:26.749Z,99.90
2023-02-02T05:27:54.123Z,99.90
2023-02-02T05:30:21.219Z,99.90
2023-02-02T05:32:48.483Z,99.90
2023-02-02T05:35:15.428Z,99.90
2023-02-02T05:37:44.264Z,99.90
2023-02-02T05:40:12.004Z,99.90
2023-02-02T05:42:39.283Z,99.90
2023-02-02T05:45:06.984Z,99.90
2023-02-02T05:47:35.954Z,99.90
2023-02-02T05:50:03.210Z,99.90
2023-02-02T05:52:34.682Z,99.90
2023-02-02T05:55:03.232Z,99.90
2023-02-02T05:57:30.580Z,99.90
2023-02-02T05:59:57.472Z,99.90
2023-02-02T06:02:24.761Z,99.90
2023-02-02T06:04:51.699Z,99.90
2023-02-02T06:07:19.111Z,99.90
2023-02-02T06:09:46.063Z,99.90
2023-02-02T06:12:14.368Z,99.90
2023-02-02T06:14:41.389Z,99.90
2023-02-02T06:17:08.454Z,99.90
2023-02-02T06:19:35.356Z,99.90
2023-02-02T06:22:02.772Z,99.90
2023-02-02T06:24:29.697Z,99.90
2023-02-02T06:26:57.058Z,99.90
2023-02-02T06:29:25.499Z,99.90
2023-02-02T06:31:52.966Z,99.90
2023-02-02T06:34:20.050Z,99.90
2023-02-02T06:36:47.065Z,99.90
2023-02-02T06:39:13.957Z,99.90
2023-02-02T06:41:41.558Z,99.90
2023-02-02T06:44:08.575Z,99.90
2023-02-02T06:46:36.894Z,99.90
2023-02-02T06:49:03.792Z,99.90
2023-02-02T06:51:31.005Z,99.90
2023-02-02T06:53:59.556Z,99.90
2023-02-02T06:56:26.870Z,99.90
2023-02-02T06:58:53.699Z,99.90
2023-02-02T07:01:20.666Z,99.90
2023-02-02T07:03:51.086Z,99.90
2023-02-02T07:06:19.975Z,99.90
2023-02-02T07:08:57.533Z,99.90
2023-02-02T07:11:30.104Z,99.90
2023-02-02T07:13:57.347Z,99.90
2023-02-02T07:16:24.513Z,99.90
2023-02-02T07:18:52.877Z,99.90
2023-02-02T07:21:21.888Z,99.90
2023-02-02T07:23:48.788Z,99.90
2023-02-02T07:26:17.417Z,99.90
2023-02-02T07:28:45.080Z,99.90
2023-02-02T07:31:16.983Z,99.90
2023-02-02T07:33:44.991Z,99.90
2023-02-02T07:36:16.568Z,99.90
2023-02-02T07:38:43.912Z,99.90
2023-02-02T07:41:11.221Z,99.90
2023-02-02T07:43:38.381Z,99.90
2023-02-02T07:46:08.604Z,99.90
2023-02-02T07:48:36.200Z,99.90
2023-02-02T07:51:04.466Z,99.90
2023-02-02T07:53:33.660Z,99.90
2023-02-02T07:56:11.374Z,99.90
2023-02-02T07:58:38.412Z,99.90
2023-02-02T08:01:07.735Z,99.90
2023-02-02T08:03:35.975Z,99.90
2023-02-02T08:06:11.944Z,99.90
2023-02-02T08:08:40.636Z,99.90
2023-02-02T08:11:10.180Z,99.90
2023-02-02T08:13:37.476Z,99.90
2023-02-02T08:16:05.429Z,99.90
2023-02-02T08:18:33.510Z,99.90
2023-02-02T08:21:01.262Z,99.90
2023-02-02T08:23:28.771Z,99.90
2023-02-02T08:26:06.685Z,99.90
2023-02-02T08:28:35.221Z,99.90
2023-02-02T08:31:06.063Z,99.90
2023-02-02T08:33:33.099Z,99.90
2023-02-02T08:36:00.179Z,99.90
2023-02-02T08:38:27.088Z,99.90
2023-02-02T08:40:54.364Z,99.90
2023-02-02T08:43:22.679Z,99.90
2023-02-02T08:46:01.352Z,99.90
2023-02-02T08:48:39.271Z,99.90
2023-02-02T08:51:08.376Z,99.90
2023-02-02T08:53:35.318Z,99.90
2023-02-02T08:56:04.222Z,99.90
2023-02-02T08:58:33.864Z,99.90
2023-02-02T09:01:06.373Z,99.90
2023-02-02T09:03:33.492Z,99.90
2023-02-02T09:06:04.400Z,99.90
2023-02-02T09:08:33.740Z,99.90
2023-02-02T09:11:05.676Z,99.90
2023-02-02T09:13:34.201Z,99.90
2023-02-02T09:16:01.558Z,99.90
2023-02-02T09:18:28.621Z,99.90
2023-02-02T09:20:59.080Z,99.90
2023-02-02T09:23:26.126Z,99.90
2023-02-02T09:25:53.235Z,99.90
2023-02-02T09:28:20.187Z,99.90
2023-02-02T09:30:48.908Z,99.90
2023-02-02T09:33:15.770Z,99.90
2023-02-02T09:35:42.697Z,99.90
2023-02-02T09:38:09.638Z,99.90
2023-02-02T09:40:36.861Z,99.90
2023-02-02T09:43:14.998Z,99.90
2023-02-02T09:45:47.914Z,99.90
2023-02-02T09:48:30.668Z,99.90
2023-02-02T09:51:03.341Z,99.90
2023-02-02T09:53:53.154Z,99.90
2023-02-02T09:56:24.903Z,99.90
2023-02-02T09:58:54.852Z,99.90
2023-02-02T10:01:25.533Z,99.90
2023-02-02T10:04:01.426Z,99.90
2023-02-02T10:06:35.608Z,99.90
2023-02-02T10:09:12.245Z,99.90
2023-02-02T10:11:47.082Z,99.90
2023-02-02T10:14:20.361Z,99.90
2023-02-02T10:16:49.530Z,99.90
2023-02-02T10:19:18.011Z,93.90
2023-02-02T10:21:52.139Z,98.20
2023-02-02T10:24:21.958Z,93.00
2023-02-02T10:26:51.713Z,76.30
2023-02-02T10:29:40.146Z,73.70
2023-02-02T10:32:23.249Z,58.90
2023-02-02T10:35:13.616Z,55.90
2023-02-02T10:37:49.049Z,69.50
2023-02-02T10:40:23.674Z,99.90
2023-02-02T10:43:32.052Z,99.90
2023-02-02T10:46:02.255Z,99.90
2023-02-02T10:48:35.707Z,99.90
2023-02-02T10:51:12.035Z,99.90
2023-02-02T10:53:39.127Z,99.90
2023-02-02T10:56:11.684Z,99.90
2023-02-02T10:58:44.805Z,99.90
2023-02-02T11:01:12.670Z,99.90
2023-02-02T11:03:40.226Z,99.90
2023-02-02T11:06:27.156Z,99.90
2023-02-02T11:08:59.471Z,99.90
2023-02-02T11:11:30.108Z,99.90
2023-02-02T11:14:01.350Z,99.90
2023-02-02T11:16:41.955Z,99.90
2023-02-02T11:19:29.966Z,99.90
2023-02-02T11:21:59.668Z,99.90
2023-02-02T11:24:28.781Z,99.90
2023-02-02T11:26:58.138Z,99.90
2023-02-02T11:29:29.612Z,99.90
2023-02-02T11:31:57.017Z,99.90
2023-02-02T11:34:25.735Z,99.90
2023-02-02T11:37:03.617Z,99.90
2023-02-02T11:39:31.181Z,99.90
2023-02-02T11:42:04.023Z,99.90
2023-02-02T11:44:32.660Z,99.90
2023-02-02T11:47:00.557Z,99.90
2023-02-02T11:49:28.605Z,99.90
2023-02-02T11:52:02.235Z,99.90
2023-02-02T11:54:33.616Z,81.30
2023-02-02T11:57:02.948Z,94.70
2023-02-02T11:59:37.731Z,77.00
2023-02-02T12:02:25.024Z,60.00
2023-02-02T12:04:54.440Z,51.90
2023-02-02T12:07:27.868Z,43.10
2023-02-02T12:10:01.150Z,44.70
2023-02-02T12:12:38.975Z,44.90
2023-02-02T12:15:20.220Z,1.00
2023-02-02T12:17:48.484Z,2.80
2023-02-02T12:20:32.055Z,10.40
2023-02-02T12:23:19.894Z,4.70
2023-02-02T12:26:15.371Z,7.30
2023-02-02T12:29:15.467Z,9.70
2023-02-02T12:31:53.697Z,23.70
2023-02-02T12:34:30.410Z,18.80
2023-02-02T12:37:08.111Z,1.00
2023-02-02T12:39:46.518Z,1.00
2023-02-02T12:42:36.596Z,1.00
2023-02-02T12:45:43.072Z,1.00
2023-02-02T12:48:27.438Z,1.00
2023-02-02T12:51:07.901Z,1.00
2023-02-02T12:54:32.772Z,1.00
2023-02-02T12:56:45.252Z,1.00
2023-02-02T12:59:22.786Z,1.00
2023-02-02T13:02:03.473Z,1.00
2023-02-02T13:04:49.978Z,1.00
2023-02-02T13:07:26.841Z,1.00
2023-02-02T13:10:06.732Z,1.00
2023-02-02T13:12:38.648Z,1.00
2023-02-02T13:15:09.771Z,1.00
2023-02-02T13:17:40.816Z,1.00
2023-02-02T13:20:18.764Z,1.00
2023-02-02T13:22:50.502Z,1.00
2023-02-02T13:25:24.024Z,1.00
2023-02-02T13:27:53.587Z,1.00
2023-02-02T13:30:32.180Z,1.00
2023-02-02T13:33:02.481Z,1.00
2023-02-02T13:35:34.734Z,1.00
2023-02-02T13:38:11.642Z,1.00
2023-02-02T13:40:40.198Z,1.00
2023-02-02T13:43:22.162Z,1.00
2023-02-02T13:46:06.909Z,1.00
2023-02-02T13:48:47.595Z,1.00
2023-02-02T13:51:40.156Z,1.00
2023-02-02T13:54:42.828Z,1.00
2023-02-02T13:57:28.114Z,1.00
2023-02-02T14:00:04.212Z,1.00
2023-02-02T14:02:38.834Z,1.00
2023-02-02T14:05:07.345Z,1.00
2023-02-02T14:07:41.838Z,1.00
2023-02-02T14:10:24.342Z,1.00
2023-02-02T14:12:54.771Z,1.00
2023-02-02T14:15:39.735Z,1.00
2023-02-02T14:18:07.266Z,1.00
2023-02-02T14:20:48.209Z,1.00
2023-02-02T14:23:51.114Z,1.00
2023-02-02T14:26:22.121Z,1.00
2023-02-02T14:28:51.270Z,1.00
2023-02-02T14:31:52.559Z,1.00
2023-02-02T14:34:31.115Z,1.00
2023-02-02T14:37:40.004Z,1.00
2023-02-02T14:40:42.241Z,1.00
2023-02-02T14:43:37.861Z,2.50
2023-02-02T14:46:36.680Z,1.00
2023-02-02T14:49:21.105Z,1.00
2023-02-02T14:51:55.456Z,6.10
2023-02-02T14:54:26.593Z,3.80
2023-02-02T14:56:58.164Z,6.50
2023-02-02T14:59:28.678Z,7.70
2023-02-02T15:02:02.588Z,4.90
2023-02-02T15:04:31.309Z,6.40
2023-02-02T15:07:50.883Z,8.40
2023-02-02T15:10:57.413Z,12.90
2023-02-02T15:13:26.850Z,17.00
2023-02-02T15:16:05.507Z,31.50
2023-02-02T15:18:39.551Z,26.30
2023-02-02T15:21:08.027Z,85.80
2023-02-02T15:23:41.262Z,99.90
2023-02-02T15:26:15.349Z,99.90
2023-02-02T15:28:45.575Z,99.90
2023-02-02T15:31:20.332Z,99.90
2023-02-02T15:33:50.231Z,99.90
2023-02-02T15:36:20.582Z,99.90
2023-02-02T15:38:52.568Z,99.90
2023-02-02T15:41:23.623Z,99.90
2023-02-02T15:43:51.693Z,99.90
2023-02-02T15:46:24.440Z,99.90
2023-02-02T15:49:33.924Z,99.90
2023-02-02T15:52:10.674Z,99.90
2023-02-02T15:54:48.236Z,99.90
2023-02-02T15:57:29.636Z,99.90
2023-02-02T15:59:57.270Z,99.90
2023-02-02T16:02:32.415Z,99.90
2023-02-02T16:04:59.419Z,99.90
2023-02-02T16:07:31.056Z,99.90
2023-02-02T16:10:05.259Z,99.90
2023-02-02T16:12:34.468Z,99.90
2023-02-02T16:15:01.799Z,99.90
2023-02-02T16:17:32.035Z,99.90
2023-02-02T16:20:03.317Z,99.90
2023-02-02T16:22:31.696Z,99.90
2023-02-02T16:25:01.946Z,99.90
2023-02-02T16:27:31.783Z,99.90
2023-02-02T16:30:01.541Z,99.90
2023-02-02T16:32:31.833Z,99.90
2023-02-02T16:34:59.929Z,99.90
2023-02-02T16:37:29.128Z,99.90
2023-02-02T16:39:57.618Z,99.90
2023-02-02T16:42:26.941Z,99.90
2023-02-02T16:44:56.319Z,99.90
2023-02-02T16:47:36.125Z,99.90
2023-02-02T16:50:26.536Z,99.90
2023-02-02T16:52:55.748Z,99.90
2023-02-02T16:55:24.244Z,99.90
2023-02-02T16:57:52.576Z,99.90
2023-02-02T17:00:23.905Z,99.90
2023-02-02T17:02:55.955Z,99.90
2023-02-02T17:05:29.011Z,99.90
2023-02-02T17:08:01.171Z,99.90
2023-02-02T17:10:33.586Z,99.90
2023-02-02T17:13:02.067Z,99.90
2023-02-02T17:15:35.017Z,99.90
2023-02-02T17:18:03.968Z,99.90
2023-02-02T17:20:32.504Z,99.90
2023-02-02T17:23:04.897Z,99.90
2023-02-02T17:25:37.222Z,99.90
2023-02-02T17:28:09.884Z,99.90
2023-02-02T17:30:40.418Z,99.90
2023-02-02T17:33:11.717Z,99.90
2023-02-02T17:35:53.038Z,99.90
2023-02-02T17:38:21.605Z,99.90
2023-02-02T17:40:48.997Z,99.90
2023-02-02T17:43:16.581Z,99.90
2023-02-02T17:45:45.174Z,99.90
2023-02-02T17:48:13.695Z,99.90
2023-02-02T17:50:41.691Z,99.90
2023-02-02T17:53:11.757Z,99.90
2023-02-02T17:55:41.916Z,99.90
2023-02-02T17:58:10.494Z,99.90
2023-02-02T18:00:39.194Z,99.90
2023-02-02T18:03:13.363Z,99.90
2023-02-02T18:05:43.211Z,99.90
2023-02-02T18:08:11.555Z,99.90
2023-02-02T18:10:38.752Z,99.90
2023-02-02T18:13:06.090Z,99.90
2023-02-02T18:15:35.152Z,99.90
2023-02-02T18:18:02.975Z,99.90
2023-02-02T18:20:31.241Z,99.90
2023-02-02T18:22:58.450Z,99.90
2023-02-02T18:25:26.449Z,99.90
2023-02-02T18:27:56.367Z,99.90
2023-02-02T18:30:25.214Z,99.90
2023-02-02T18:32:52.639Z,99.90
2023-02-02T18:35:19.967Z,99.90
2023-02-02T18:37:49.258Z,99.90
2023-02-02T18:40:16.868Z,99.90
2023-02-02T18:42:43.875Z,99.90
2023-02-02T18:45:11.666Z,99.90
2023-02-02T18:47:41.259Z,99.90
2023-02-02T18:50:13.108Z,99.90
2023-02-02T18:52:39.956Z,99.90
2023-02-02T18:55:09.482Z,99.90
2023-02-02T18:57:36.468Z,99.90
2023-02-02T19:00:05.433Z,99.90
2023-02-02T19:02:32.445Z,99.90
2023-02-02T19:05:18.221Z,99.90
2023-02-02T19:07:57.117Z,99.90
2023-02-02T19:10:28.571Z,99.90
2023-02-02T19:12:58.678Z,99.90
2023-02-02T19:15:27.707Z,99.90
2023-02-02T19:17:56.771Z,99.90
2023-02-02T19:20:28.966Z,99.90
2023-02-02T19:23:03.070Z,99.90
2023-02-02T19:25:31.729Z,99.90
2023-02-02T19:28:02.037Z,99.90
2023-02-02T19:30:29.099Z,99.90
2023-02-02T19:32:56.563Z,99.90
2023-02-02T19:35:27.553Z,99.90
2023-02-02T19:38:00.845Z,99.90
2023-02-02T19:40:28.062Z,99.90
2023-02-02T19:43:08.753Z,99.90
2023-02-02T19:45:36.077Z,99.90
2023-02-02T19:48:15.494Z,99.90
2023-02-02T19:50:42.845Z,99.90
2023-02-02T19:53:16.303Z,99.90
2023-02-02T19:55:44.268Z,99.90
2023-02-02T19:58:19.944Z,99.90
2023-02-02T20:00:47.797Z,99.90
2023-02-02T20:03:18.786Z,99.90
2023-02-02T20:05:50.719Z,99.90
2023-02-02T20:08:26.870Z,99.90
2023-02-02T20:10:55.692Z,99.90
2023-02-02T20:13:32.918Z,99.90
2023-02-02T20:16:04.329Z,99.90
2023-02-02T20:18:41.869Z,99.90
2023-02-02T20:21:19.767Z,99.90
2023-02-02T20:23:46.932Z,99.90
2023-02-02T20:26:22.146Z,99.90
2023-02-02T20:28:52.019Z,99.90
2023-02-02T20:31:21.459Z,99.90
2023-02-02T20:33:50.609Z,99.90
2023-02-02T20:36:30.795Z,99.90
2023-02-02T20:39:01.593Z,99.90
2023-02-02T20:41:28.611Z,99.90
2023-02-02T20:43:56.944Z,99.90
2023-02-02T20:46:24.135Z,99.90
2023-02-02T20:48:51.038Z,99.90
2023-02-02T20:51:18.399Z,99.90
2023-02-02T20:53:45.516Z,99.90
2023-02-02T20:56:12.450Z,99.90
2023-02-02T20:58:39.809Z,99.90
2023-02-02T21:01:08.528Z,99.90
2023-02-02T21:03:35.444Z,99.90
2023-02-02T21:06:02.463Z,99.90
2023-02-02T21:08:29.525Z,99.90
2023-02-02T21:10:56.896Z,99.90
2023-02-02T21:13:23.969Z,99.90
2023-02-02T21:15:51.205Z,99.90
2023-02-02T21:18:19.481Z,99.90
2023-02-02T21:20:46.739Z,99.90
2023-02-02T21:23:13.855Z,99.90
2023-02-02T21:25:41.109Z,99.90
2023-02-02T21:28:08.337Z,99.90
2023-02-02T21:30:36.186Z,99.90
2023-02-02T21:33:05.043Z,99.90
2023-02-02T21:35:33.631Z,99.90
2023-02-02T21:38:07.341Z,99.90
2023-02-02T21:40:34.965Z,99.90
2023-02-02T21:43:11.367Z,99.90
2023-02-02T21:45:39.156Z,99.90
2023-02-02T21:48:20.565Z,99.90
2023-02-02T21:50:48.933Z,99.90
2023-02-02T21:53:22.609Z,99.90
2023-02-02T21:55:52.989Z,99.90
2023-02-02T21:58:22.610Z,99.90
2023-02-02T22:00:50.591Z,99.90
2023-02-02T22:03:28.468Z,99.90
2023-02-02T22:06:17.842Z,99.90
2023-02-02T22:08:44.808Z,99.90
2023-02-02T22:11:23.221Z,99.90
2023-02-02T22:13:52.699Z,99.90
2023-02-02T22:16:20.928Z,99.90
2023-02-02T22:18:48.219Z,99.90
2023-02-02T22:21:20.788Z,99.90
2023-02-02T22:23:47.996Z,99.90
2023-02-02T22:26:31.300Z,99.90
2023-02-02T22:28:58.560Z,99.90
2023-02-02T22:31:25.571Z,99.90
2023-02-02T22:33:53.089Z,99.90
2023-02-02T22:36:21.402Z,99.90
2023-02-02T22:38:48.637Z,99.90
2023-02-02T22:41:15.643Z,99.90
2023-02-02T22:43:42.550Z,99.90
2023-02-02T22:46:09.517Z,99.90
2023-02-02T22:48:36.807Z,99.90
2023-02-02T22:51:03.814Z,99.90
2023-02-02T22:53:32.525Z,99.90
2023-02-02T22:55:59.478Z,99.90
2023-02-02T22:58:26.810Z,99.90
2023-02-02T23:00:53.733Z,99.90
2023-02-02T23:03:21.259Z,99.90
2023-02-02T23:05:48.179Z,99.90
2023-02-02T23:08:15.655Z,99.90
2023-02-02T23:10:43.839Z,99.90
2023-02-02T23:13:10.851Z,99.90
2023-02-02T23:15:37.814Z,99.90
2023-02-02T23:18:05.238Z,99.90
2023-02-02T23:20:32.512Z,99.90
2023-02-02T23:22:59.471Z,99.90
2023-02-02T23:25:26.510Z,99.90
2023-02-02T23:27:54.951Z,99.90
2023-02-02T23:30:24.927Z,99.90
2023-02-02T23:32:52.985Z,99.90
2023-02-02T23:35:20.273Z,99.90
2023-02-02T23:37:47.207Z,99.90
2023-02-02T23:40:14.141Z,99.90
2023-02-02T23:42:41.073Z,99.90
2023-02-02T23:45:10.618Z,99.90
2023-02-02T23:47:37.787Z,99.90
2023-02-02T23:50:07.876Z,99.90
2023-02-02T23:52:35.692Z,99.90
2023-02-02T23:55:03.702Z,99.90
2023-02-02T23:57:30.902Z,99.90
2023-02-02T23:59:58.188Z,99.90
